Terminal Aerodrome Forecast
Issued by NWS

Home | Current Version | Previous Version | Text Only | Print | Product List | Glossary On
Versions: 1 2 3 4 5 6 7 8 9 10 11 12 13 14 15 16 17 18 19 20 21 22 23 24 25 26 27
474
FTUS41 KOKX 021933 AAA
TAFGON
TAF AMD
KGON 021933Z 0220/0318 VRB03KT P6SM BKN009 OVC015
      TEMPO 0223/0301 BKN005 OVC010
     FM030100 VRB03KT 2SM BR OVC003
     FM031100 07008KT 1SM RA BR OVC003=

USA.gov is the U.S. government's official web portal to all federal, state and local government web resources and services.